Time;durP1;ratioP1;P1;durP2;ratioP2;P2;SDS_P1;SDS_P2;PMS_P1;PMS_P2;Temp;Humidity;BMP_temperature;BMP_pressure;BME280_temperature;BME280_humidity;BME280_pressure;Samples;Min_cycle;Max_cycle;Signal;HPM_P1;HPM_P2
2022/12/09 00:01:09;;;;;;;238.93;102.43;;;7.20;99.90;;;;;;5095385;28;20028;-62
2022/12/09 00:03:36;;;;;;;232.50;101.93;;;7.20;99.90;;;;;;5096475;28;20465;-62
2022/12/09 00:06:22;;;;;;;227.48;98.30;;;7.20;99.90;;;;;;5096225;28;20027;-62
2022/12/09 00:08:48;;;;;;;248.23;102.45;;;7.20;99.90;;;;;;5096002;28;20024;-62
2022/12/09 00:11:15;;;;;;;223.73;93.80;;;7.20;99.90;;;;;;5095923;28;20050;-62
2022/12/09 00:13:41;;;;;;;240.73;102.50;;;7.20;99.90;;;;;;5078010;28;20078;-62
2022/12/09 00:16:09;;;;;;;226.95;96.07;;;7.20;99.90;;;;;;5096103;28;20024;-62
2022/12/09 00:18:36;;;;;;;241.02;102.85;;;7.20;99.90;;;;;;5095775;28;20051;-62
2022/12/09 00:21:27;;;;;;;231.73;97.63;;;7.10;99.90;;;;;;5095860;28;20494;-62
2022/12/09 00:23:55;;;;;;;210.43;89.50;;;7.10;99.90;;;;;;5095703;28;20174;-62
2022/12/09 00:26:23;;;;;;;219.77;96.88;;;7.10;99.90;;;;;;5095946;28;20107;-62
2022/12/09 00:28:50;;;;;;;244.57;101.40;;;7.10;99.90;;;;;;5095750;28;20024;-62
2022/12/09 00:31:24;;;;;;;250.57;105.40;;;6.90;99.90;;;;;;5095741;28;20084;-62
2022/12/09 00:33:53;;;;;;;260.98;107.65;;;7.00;99.90;;;;;;5095514;28;20074;-62
2022/12/09 00:36:20;;;;;;;251.18;104.35;;;7.00;99.90;;;;;;5095557;28;20032;-62
2022/12/09 00:38:47;;;;;;;238.25;100.80;;;6.80;99.90;;;;;;5077470;28;20035;-62
2022/12/09 00:41:14;;;;;;;263.27;104.18;;;6.80;99.90;;;;;;5095568;28;20120;-62
2022/12/09 00:43:42;;;;;;;252.02;101.55;;;6.90;99.90;;;;;;5095357;28;20031;-62
2022/12/09 00:46:08;;;;;;;267.30;105.15;;;6.90;99.90;;;;;;5077024;28;20028;-62
2022/12/09 00:48:37;;;;;;;284.23;107.03;;;6.90;99.90;;;;;;5077203;28;20028;-62
2022/12/09 00:51:04;;;;;;;254.63;99.50;;;6.80;99.90;;;;;;5076952;28;20024;-62
2022/12/09 00:53:30;;;;;;;229.40;90.95;;;6.70;99.90;;;;;;5077202;28;20030;-62
2022/12/09 00:55:56;;;;;;;162.88;74.28;;;6.70;99.90;;;;;;5095141;28;20107;-62
2022/12/09 00:58:23;;;;;;;216.63;89.57;;;6.70;99.90;;;;;;5095158;28;20052;-62
2022/12/09 01:00:49;;;;;;;256.70;100.28;;;6.70;99.90;;;;;;5076870;28;20071;-62
2022/12/09 01:03:18;;;;;;;186.10;78.07;;;6.60;99.90;;;;;;5095127;28;20024;-62
2022/12/09 01:05:44;;;;;;;214.43;89.82;;;6.70;99.90;;;;;;5094957;28;20031;-62
2022/12/09 01:08:12;;;;;;;297.90;117.88;;;6.70;99.90;;;;;;5076839;28;20039;-62
2022/12/09 01:10:40;;;;;;;307.80;120.88;;;6.70;99.90;;;;;;5094657;28;20028;-62
2022/12/09 01:13:06;;;;;;;279.95;115.45;;;6.70;99.90;;;;;;5076603;28;20024;-62
2022/12/09 01:15:32;;;;;;;237.55;99.28;;;6.60;99.90;;;;;;5077044;28;20028;-62
2022/12/09 01:17:58;;;;;;;234.30;98.28;;;6.60;99.90;;;;;;5076710;28;20550;-62
2022/12/09 01:20:24;;;;;;;223.13;97.20;;;6.60;99.90;;;;;;5094522;28;20047;-62
2022/12/09 01:22:50;;;;;;;250.98;111.13;;;6.70;99.90;;;;;;5076530;28;20024;-62
2022/12/09 01:25:17;;;;;;;203.57;87.93;;;6.80;99.90;;;;;;5094843;28;20024;-62
2022/12/09 01:27:43;;;;;;;221.30;88.97;;;6.90;99.90;;;;;;5094751;28;20591;-62
2022/12/09 01:30:12;;;;;;;236.38;96.65;;;6.80;99.90;;;;;;5094640;28;20111;-62
2022/12/09 01:32:38;;;;;;;260.25;101.68;;;6.80;99.90;;;;;;5076296;28;20028;-62
2022/12/09 01:35:04;;;;;;;218.57;92.32;;;6.70;99.90;;;;;;5093243;28;20547;-62
2022/12/09 01:37:34;;;;;;;213.15;80.93;;;6.60;99.90;;;;;;5094797;28;20020;-62
2022/12/09 01:40:04;;;;;;;232.63;84.72;;;6.70;99.90;;;;;;5076537;28;20710;-62
2022/12/09 01:42:33;;;;;;;176.65;70.68;;;6.70;99.90;;;;;;5094641;28;20355;-62
2022/12/09 01:45:21;;;;;;;172.00;65.85;;;6.70;99.90;;;;;;5094606;28;20035;-63
2022/12/09 01:47:56;;;;;;;193.48;72.75;;;6.60;99.90;;;;;;5076558;28;20020;-63
2022/12/09 01:50:25;;;;;;;347.98;94.50;;;6.70;99.90;;;;;;5094291;28;20032;-62
2022/12/09 01:52:54;;;;;;;281.02;92.80;;;6.70;99.90;;;;;;5094677;28;20085;-62
2022/12/09 01:55:22;;;;;;;204.80;77.93;;;6.60;99.90;;;;;;5076463;28;20036;-62
2022/12/09 01:57:48;;;;;;;183.88;71.57;;;6.50;99.90;;;;;;5076387;28;20047;-62
2022/12/09 02:00:14;;;;;;;220.57;87.50;;;6.60;99.90;;;;;;5076326;28;20035;-62
2022/12/09 02:02:47;;;;;;;253.75;98.30;;;6.70;99.90;;;;;;5094815;28;20051;-62
2022/12/09 02:05:17;;;;;;;277.20;99.53;;;6.60;99.90;;;;;;5076308;28;20039;-62
2022/12/09 02:07:47;;;;;;;290.75;108.45;;;6.70;99.90;;;;;;5076256;28;20067;-62
2022/12/09 02:10:16;;;;;;;249.43;98.28;;;6.60;99.90;;;;;;5075891;28;20043;-62
2022/12/09 02:13:14;;;;;;;292.87;112.43;;;6.60;99.90;;;;;;5076156;28;20034;-62
2022/12/09 02:15:51;;;;;;;226.90;93.93;;;6.70;99.90;;;;;;5025780;28;20031;-62
2022/12/09 02:18:25;;;;;;;268.33;106.93;;;6.80;99.90;;;;;;5075879;28;20394;-62
2022/12/09 02:20:57;;;;;;;360.83;126.78;;;6.80;99.90;;;;;;5094107;28;20055;-62
2022/12/09 02:23:49;;;;;;;313.38;119.53;;;6.80;99.90;;;;;;5077194;28;20089;-62
2022/12/09 02:26:32;;;;;;;287.55;110.40;;;6.70;99.90;;;;;;5079963;28;20141;-62
2022/12/09 02:29:35;;;;;;;317.50;124.47;;;6.80;99.90;;;;;;5098174;28;20039;-62
2022/12/09 02:32:48;;;;;;;295.05;115.85;;;6.80;99.90;;;;;;5080177;28;20134;-62
2022/12/09 02:35:14;;;;;;;;;;;6.80;99.90;;;;;;5075277;28;20092;-62
2022/12/09 02:37:55;;;;;;;260.20;104.43;;;6.80;99.90;;;;;;5079883;28;20007;-62
2022/12/09 02:40:37;;;;;;;299.20;118.00;;;6.80;99.90;;;;;;5079544;28;20020;-62
2022/12/09 02:43:06;;;;;;;257.17;109.10;;;6.70;99.90;;;;;;5097837;28;20036;-62
2022/12/09 02:45:34;;;;;;;316.88;116.45;;;6.60;99.90;;;;;;5079443;28;20103;-62
2022/12/09 02:48:03;;;;;;;265.25;108.50;;;6.60;99.90;;;;;;5079523;28;20489;-62
2022/12/09 02:50:33;;;;;;;239.85;99.07;;;6.50;99.90;;;;;;5079233;28;20477;-62
2022/12/09 02:53:10;;;;;;;248.77;103.60;;;6.50;99.90;;;;;;5097792;28;20086;-62
2022/12/09 02:55:40;;;;;;;246.60;99.45;;;6.50;99.90;;;;;;5079446;28;20253;-62
2022/12/09 02:58:06;;;;;;;247.88;104.05;;;6.50;99.90;;;;;;5079146;28;20232;-62
2022/12/09 03:00:35;;;;;;;261.02;103.22;;;6.50;99.90;;;;;;5079439;28;20024;-62
2022/12/09 03:03:03;;;;;;;269.50;110.90;;;6.40;99.90;;;;;;5097525;28;20024;-62
2022/12/09 03:05:35;;;;;;;262.45;103.05;;;6.40;99.90;;;;;;5097099;28;20477;-62
2022/12/09 03:08:30;;;;;;;278.45;104.78;;;6.50;99.90;;;;;;5097398;28;20031;-62
2022/12/09 03:11:00;;;;;;;279.95;102.18;;;6.40;99.90;;;;;;5075269;28;20058;-62
2022/12/09 03:13:38;;;;;;;;;;;6.50;99.90;;;;;;5097757;28;20398;-62
2022/12/09 03:16:27;;;;;;;430.77;129.35;;;6.40;99.90;;;;;;5097251;28;19959;-62
2022/12/09 03:19:00;;;;;;;244.43;90.55;;;6.40;99.90;;;;;;5096840;28;20051;-62
2022/12/09 03:21:27;;;;;;;315.35;106.47;;;6.30;99.90;;;;;;5096931;28;20024;-62
2022/12/09 03:23:55;;;;;;;287.65;107.13;;;6.50;99.90;;;;;;5097247;28;20038;-62
2022/12/09 03:26:27;;;;;;;203.40;82.93;;;6.40;99.90;;;;;;5096988;28;20035;-62
2022/12/09 03:28:54;;;;;;;216.35;86.65;;;6.40;99.90;;;;;;5097071;28;20032;-62
2022/12/09 03:31:23;;;;;;;204.43;85.75;;;6.40;99.90;;;;;;5096939;28;20454;-62
2022/12/09 03:33:53;;;;;;;219.38;85.93;;;6.40;99.90;;;;;;5096334;28;20359;-62
2022/12/09 03:36:21;;;;;;;211.63;87.85;;;6.40;99.90;;;;;;5095935;28;20099;-62
2022/12/09 03:38:50;;;;;;;236.60;97.07;;;6.40;99.90;;;;;;5096821;28;20028;-62
2022/12/09 03:41:19;;;;;;;214.45;93.80;;;6.30;99.90;;;;;;5096762;28;20031;-62
2022/12/09 03:43:56;;;;;;;203.05;85.45;;;6.30;99.90;;;;;;5096502;28;20032;-62
2022/12/09 03:46:23;;;;;;;221.85;91.72;;;6.40;99.90;;;;;;5096372;28;20028;-62
2022/12/09 03:48:49;;;;;;;188.02;79.57;;;6.40;99.90;;;;;;5096705;28;20142;-62
2022/12/09 03:51:38;;;;;;;187.07;81.95;;;6.40;99.90;;;;;;5096344;28;20063;-62
2022/12/09 03:54:15;;;;;;;181.63;80.25;;;6.50;99.90;;;;;;5096461;28;20028;-63
2022/12/09 03:56:44;;;;;;;176.25;78.53;;;6.30;99.90;;;;;;5096207;28;20496;-62
2022/12/09 03:59:12;;;;;;;191.45;82.45;;;6.40;99.90;;;;;;5096303;28;20550;-62
2022/12/09 04:01:41;;;;;;;153.45;67.82;;;6.30;99.90;;;;;;5096280;28;20043;-62
2022/12/09 04:04:08;;;;;;;155.80;70.78;;;6.30;99.90;;;;;;5096158;28;20507;-62
2022/12/09 04:06:34;;;;;;;163.20;72.90;;;6.30;99.90;;;;;;5096047;28;20024;-62
2022/12/09 04:09:00;;;;;;;167.52;71.95;;;6.20;99.90;;;;;;5096139;28;20026;-62
2022/12/09 04:11:26;;;;;;;173.88;78.45;;;6.30;99.90;;;;;;5096082;28;20526;-62
2022/12/09 04:13:52;;;;;;;206.88;87.72;;;6.30;99.90;;;;;;5096268;28;20423;-62
2022/12/09 04:16:18;;;;;;;292.23;114.15;;;6.30;99.90;;;;;;5095979;28;20032;-62
2022/12/09 04:18:44;;;;;;;248.82;100.93;;;6.30;99.90;;;;;;5095946;28;20067;-62
2022/12/09 04:21:12;;;;;;;260.50;103.40;;;6.30;99.90;;;;;;5095896;28;20027;-62
2022/12/09 04:23:40;;;;;;;225.45;96.63;;;6.30;99.90;;;;;;5095670;28;20040;-62
2022/12/09 04:26:06;;;;;;;176.27;82.60;;;6.30;99.90;;;;;;5095890;28;20020;-62
2022/12/09 04:28:32;;;;;;;164.65;78.38;;;6.30;99.90;;;;;;5095905;28;20112;-62
2022/12/09 04:30:58;;;;;;;202.25;88.32;;;6.30;99.90;;;;;;5095755;28;20118;-62
2022/12/09 04:33:25;;;;;;;181.05;79.63;;;6.30;99.90;;;;;;5095549;28;20083;-62
2022/12/09 04:35:51;;;;;;;166.10;72.93;;;6.20;99.90;;;;;;5095672;28;20031;-62
2022/12/09 04:38:17;;;;;;;172.70;76.88;;;6.40;99.90;;;;;;5094334;28;20032;-62
2022/12/09 04:40:43;;;;;;;208.38;84.00;;;6.30;99.90;;;;;;5095707;28;20032;-62
2022/12/09 04:43:09;;;;;;;309.70;104.05;;;6.30;99.90;;;;;;5095425;28;20036;-62
2022/12/09 04:45:36;;;;;;;265.55;99.43;;;6.40;99.90;;;;;;5094902;28;20020;-62
2022/12/09 04:48:02;;;;;;;280.25;107.00;;;6.30;99.90;;;;;;5095450;28;20069;-62
2022/12/09 04:50:28;;;;;;;275.70;105.20;;;6.30;99.90;;;;;;5095300;28;20028;-62
2022/12/09 04:52:54;;;;;;;268.05;100.95;;;6.40;99.90;;;;;;5095501;28;20024;-62
2022/12/09 04:55:20;;;;;;;260.33;107.82;;;6.30;99.90;;;;;;5095336;28;20116;-62
2022/12/09 04:57:45;;;;;;;244.57;98.18;;;6.40;99.90;;;;;;5095254;28;20031;-62
2022/12/09 05:00:12;;;;;;;252.63;106.07;;;6.50;99.90;;;;;;5095193;28;20167;-62
2022/12/09 05:02:38;;;;;;;234.68;100.20;;;6.40;99.90;;;;;;5095141;28;20465;-62
2022/12/09 05:05:04;;;;;;;240.85;104.70;;;6.30;99.90;;;;;;5095085;28;20107;-62
2022/12/09 05:07:30;;;;;;;251.45;105.93;;;6.40;99.90;;;;;;5095039;28;20493;-62
2022/12/09 05:09:57;;;;;;;334.70;135.25;;;6.40;99.90;;;;;;5094851;28;20028;-62
2022/12/09 05:12:23;;;;;;;294.75;127.68;;;6.30;99.90;;;;;;5095152;28;20028;-62
2022/12/09 05:14:49;;;;;;;271.60;111.88;;;6.30;99.90;;;;;;5094938;28;20024;-63
2022/12/09 05:17:15;;;;;;;314.00;128.13;;;6.40;99.90;;;;;;5094943;28;20529;-62
2022/12/09 05:19:41;;;;;;;302.52;123.80;;;6.40;99.90;;;;;;5094591;28;20047;-62
2022/12/09 05:22:07;;;;;;;322.48;135.50;;;6.50;99.90;;;;;;5094743;28;20032;-62
2022/12/09 05:24:33;;;;;;;330.80;139.57;;;6.50;99.90;;;;;;5094787;28;20032;-62
2022/12/09 05:26:59;;;;;;;328.95;133.45;;;6.50;99.90;;;;;;5093683;28;20023;-62
2022/12/09 05:29:25;;;;;;;359.15;151.07;;;6.50;99.90;;;;;;5094734;28;20103;-62
2022/12/09 05:31:51;;;;;;;319.65;142.10;;;6.50;99.90;;;;;;5094659;28;20031;-62
2022/12/09 05:34:17;;;;;;;306.95;133.70;;;6.50;99.90;;;;;;5094511;28;20032;-62
2022/12/09 05:36:43;;;;;;;264.45;116.40;;;6.50;99.90;;;;;;5094894;28;20297;-62
2022/12/09 05:39:09;;;;;;;249.73;110.43;;;6.50;99.90;;;;;;5094598;28;20028;-63
2022/12/09 05:41:35;;;;;;;323.35;128.60;;;6.50;99.90;;;;;;5094502;28;20435;-62
2022/12/09 05:44:01;;;;;;;318.45;131.63;;;6.50;99.90;;;;;;5094471;28;20085;-62
2022/12/09 05:46:28;;;;;;;318.30;130.60;;;6.30;99.90;;;;;;5094359;28;20016;-63
2022/12/09 05:48:54;;;;;;;361.85;154.13;;;6.30;99.90;;;;;;5094732;28;20117;-62
2022/12/09 05:51:26;;;;;;;357.20;153.25;;;6.40;99.90;;;;;;5094528;28;20028;-62
2022/12/09 05:53:53;;;;;;;393.00;162.65;;;6.40;99.90;;;;;;5094440;28;20855;-62
2022/12/09 05:56:21;;;;;;;363.27;162.10;;;6.40;99.90;;;;;;5094413;28;20028;-62
2022/12/09 05:58:47;;;;;;;340.90;145.05;;;6.40;99.90;;;;;;5096432;28;20055;-62
2022/12/09 06:01:13;;;;;;;466.13;208.65;;;6.40;99.90;;;;;;5098791;28;20096;-62
2022/12/09 06:03:40;;;;;;;389.73;173.02;;;6.40;99.90;;;;;;5098331;28;20488;-62
2022/12/09 06:06:11;;;;;;;413.70;171.82;;;6.40;99.90;;;;;;5098353;28;20505;-62
2022/12/09 06:08:38;;;;;;;342.02;147.73;;;6.30;99.90;;;;;;5098279;28;20454;-62
2022/12/09 06:11:07;;;;;;;396.05;160.75;;;6.40;99.90;;;;;;5098072;28;20466;-62
2022/12/09 06:13:33;;;;;;;343.38;140.73;;;6.20;99.90;;;;;;5098238;28;20107;-62
2022/12/09 06:16:04;;;;;;;364.02;151.00;;;6.20;99.90;;;;;;5106796;28;20070;-62
2022/12/09 06:18:30;;;;;;;;;;;6.40;99.90;;;;;;5101574;28;20051;-62
2022/12/09 06:20:56;;;;;;;328.10;145.52;;;6.40;99.90;;;;;;5106972;28;19927;-62
2022/12/09 06:23:21;;;;;;;359.27;154.15;;;6.30;99.90;;;;;;5107046;28;20442;-62
2022/12/09 06:25:47;;;;;;;315.23;140.95;;;6.40;99.90;;;;;;5099682;28;20028;-62
2022/12/09 06:28:13;;;;;;;328.27;146.00;;;6.30;99.90;;;;;;5097516;28;20024;-62
2022/12/09 06:30:39;;;;;;;369.05;162.07;;;6.30;99.90;;;;;;5107302;28;20458;-62
2022/12/09 06:33:06;;;;;;;389.40;164.27;;;6.40;99.90;;;;;;5106310;28;20032;-63
2022/12/09 06:35:32;;;;;;;325.23;139.68;;;6.30;99.90;;;;;;5087084;28;20986;-62
2022/12/09 06:37:58;;;;;;;336.65;152.07;;;6.30;99.90;;;;;;5100961;28;20546;-62
2022/12/09 06:40:24;;;;;;;261.70;118.32;;;6.40;99.90;;;;;;5103606;28;20024;-62
2022/12/09 06:42:51;;;;;;;277.73;124.63;;;6.50;99.90;;;;;;5102920;28;20017;-62
2022/12/09 06:45:18;;;;;;;294.85;136.30;;;6.60;99.90;;;;;;5103303;28;20122;-62
2022/12/09 06:47:44;;;;;;;326.95;143.15;;;6.60;99.90;;;;;;5097542;28;20028;-62
2022/12/09 06:50:12;;;;;;;274.23;126.75;;;6.60;99.90;;;;;;5106801;28;20473;-62
2022/12/09 06:52:39;;;;;;;281.00;125.25;;;6.60;99.90;;;;;;5102009;28;20023;-62
2022/12/09 06:55:09;;;;;;;311.08;137.98;;;6.50;99.90;;;;;;5100939;28;20028;-62
2022/12/09 06:57:35;;;;;;;255.60;111.97;;;6.50;99.90;;;;;;5107924;28;20099;-62
2022/12/09 07:00:04;;;;;;;213.05;100.18;;;6.60;99.90;;;;;;5096056;28;20070;-62
2022/12/09 07:02:32;;;;;;;234.38;105.60;;;6.50;99.90;;;;;;5097471;28;20145;-62
2022/12/09 07:04:59;;;;;;;243.52;106.13;;;6.60;99.90;;;;;;5102051;28;20028;-63
2022/12/09 07:07:28;;;;;;;233.27;105.05;;;6.60;99.90;;;;;;5091936;28;20334;-62
2022/12/09 07:09:57;;;;;;;204.85;92.32;;;6.50;99.90;;;;;;5098500;28;20024;-62
2022/12/09 07:12:23;;;;;;;220.77;95.03;;;6.70;99.90;;;;;;5098822;28;20445;-62
2022/12/09 07:14:49;;;;;;;194.55;92.53;;;6.70;99.90;;;;;;5096175;28;20032;-62
2022/12/09 07:17:18;;;;;;;276.40;119.20;;;6.70;99.90;;;;;;5101002;28;20019;-63
2022/12/09 07:19:45;;;;;;;256.52;111.05;;;6.80;99.90;;;;;;5101078;28;20052;-63
2022/12/09 07:22:13;;;;;;;218.18;100.63;;;6.70;99.90;;;;;;5104305;28;20107;-62
2022/12/09 07:24:39;;;;;;;212.15;93.18;;;6.70;99.90;;;;;;5104203;28;20063;-62
2022/12/09 07:27:07;;;;;;;226.00;99.78;;;6.80;99.90;;;;;;5106847;28;20024;-61
2022/12/09 07:29:36;;;;;;;199.13;92.47;;;6.90;99.90;;;;;;5102772;28;20012;-62
2022/12/09 07:32:02;;;;;;;236.45;103.00;;;7.10;99.90;;;;;;5100725;28;20080;-62
2022/12/09 07:34:28;;;;;;;304.60;120.55;;;7.10;99.90;;;;;;5101267;28;20062;-62
2022/12/09 07:36:54;;;;;;;248.23;104.13;;;7.00;99.90;;;;;;5095459;28;20036;-62
2022/12/09 07:39:20;;;;;;;224.10;94.43;;;7.10;99.90;;;;;;5095054;28;20447;-63
2022/12/09 07:41:55;;;;;;;207.75;91.40;;;7.20;99.90;;;;;;5094490;28;20032;-62
2022/12/09 07:44:21;;;;;;;203.77;89.20;;;7.30;99.90;;;;;;5094384;28;20036;-62
2022/12/09 07:46:47;;;;;;;200.75;88.40;;;7.20;99.90;;;;;;5095107;28;20035;-62
2022/12/09 07:49:13;;;;;;;213.27;96.43;;;7.30;99.90;;;;;;5095166;28;20525;-62
2022/12/09 07:51:40;;;;;;;208.48;94.00;;;7.40;99.90;;;;;;5101730;28;20062;-62
2022/12/09 07:54:09;;;;;;;201.45;95.32;;;7.40;99.90;;;;;;5101659;28;20035;-62
2022/12/09 07:56:41;;;;;;;198.98;98.40;;;7.50;99.90;;;;;;5083393;28;20016;-62
2022/12/09 07:59:12;;;;;;;201.60;100.10;;;7.60;99.90;;;;;;5092053;28;20601;-62
2022/12/09 08:01:43;;;;;;;221.05;110.07;;;7.50;99.90;;;;;;5092810;28;20035;-62
2022/12/09 08:04:12;;;;;;;204.82;104.10;;;7.60;99.90;;;;;;5100777;28;20031;-63
2022/12/09 08:06:38;;;;;;;229.23;109.47;;;7.70;99.90;;;;;;5097352;28;20107;-63
2022/12/09 08:09:07;;;;;;;195.07;98.30;;;7.80;99.90;;;;;;5105197;28;20061;-63
2022/12/09 08:11:33;;;;;;;176.40;90.07;;;7.90;99.90;;;;;;5099583;28;20500;-63
2022/12/09 08:14:03;;;;;;;175.35;87.82;;;7.90;99.90;;;;;;5102865;28;20024;-63
2022/12/09 08:16:29;;;;;;;174.38;89.03;;;7.90;99.90;;;;;;5097062;28;20520;-63
2022/12/09 08:18:56;;;;;;;170.80;90.22;;;7.90;99.90;;;;;;5052993;28;1321952;-63
2022/12/09 08:21:27;;;;;;;184.63;95.63;;;8.10;99.90;;;;;;5100753;28;20133;-63
2022/12/09 08:23:55;;;;;;;210.55;101.20;;;8.10;99.90;;;;;;5104678;28;20473;-63
2022/12/09 08:26:23;;;;;;;188.27;88.30;;;8.00;99.90;;;;;;5104094;28;20483;-63
2022/12/09 08:28:49;;;;;;;199.85;93.45;;;8.20;99.90;;;;;;5100628;28;20054;-63
2022/12/09 08:31:19;;;;;;;182.40;93.57;;;8.20;99.90;;;;;;5104172;28;20016;-63
2022/12/09 08:33:45;;;;;;;190.00;100.28;;;8.20;99.90;;;;;;5104858;28;20100;-63
2022/12/09 08:36:14;;;;;;;185.07;96.05;;;8.20;99.90;;;;;;5099306;28;20034;-62
2022/12/09 08:38:40;;;;;;;190.60;96.82;;;8.30;99.90;;;;;;5098492;28;20024;-63
2022/12/09 08:41:15;;;;;;;189.15;91.53;;;8.30;99.90;;;;;;5104256;28;20073;-63
2022/12/09 08:43:42;;;;;;;190.68;99.30;;;8.20;99.90;;;;;;5099373;28;20019;-63
2022/12/09 08:46:08;;;;;;;195.85;101.50;;;8.20;99.90;;;;;;5102959;28;20024;-62
2022/12/09 08:48:36;;;;;;;207.10;103.13;;;8.30;99.90;;;;;;5098748;28;20020;-62
2022/12/09 08:51:02;;;;;;;197.77;102.10;;;8.30;99.90;;;;;;5095150;28;20470;-62
2022/12/09 08:53:29;;;;;;;188.88;96.75;;;8.40;99.90;;;;;;5098245;28;20791;-63
2022/12/09 08:55:54;;;;;;;190.75;99.32;;;8.40;99.90;;;;;;5101941;28;20035;-62
2022/12/09 08:58:29;;;;;;;199.95;101.53;;;8.50;99.90;;;;;;5087512;28;20035;-62
2022/12/09 09:00:55;;;;;;;207.60;102.97;;;8.60;99.90;;;;;;5094989;28;20046;-62
2022/12/09 09:03:21;;;;;;;219.93;108.65;;;8.70;99.90;;;;;;5083520;28;20111;-62
2022/12/09 09:05:47;;;;;;;235.27;114.47;;;8.80;99.90;;;;;;5092920;28;20024;-62
2022/12/09 09:08:13;;;;;;;216.13;112.75;;;8.90;99.90;;;;;;5093070;28;20161;-63
2022/12/09 09:10:41;;;;;;;231.48;116.90;;;8.90;99.90;;;;;;5094996;28;20024;-62
2022/12/09 09:13:07;;;;;;;236.70;119.15;;;9.00;99.90;;;;;;5093046;28;20540;-62
2022/12/09 09:15:33;;;;;;;248.52;124.63;;;9.10;99.90;;;;;;5102810;28;20027;-63
2022/12/09 09:17:59;;;;;;;260.52;133.00;;;9.20;99.90;;;;;;5102044;28;20146;-63
2022/12/09 09:20:25;;;;;;;287.05;146.85;;;9.20;99.90;;;;;;5080593;28;20045;-63
2022/12/09 09:22:51;;;;;;;331.33;166.38;;;9.30;99.90;;;;;;5078552;28;20023;-63
2022/12/09 09:25:17;;;;;;;330.00;171.70;;;9.30;99.90;;;;;;5083248;28;20038;-63
2022/12/09 09:27:43;;;;;;;324.15;164.45;;;9.30;99.90;;;;;;5077693;28;20114;-62
2022/12/09 09:30:09;;;;;;;356.77;180.57;;;9.30;99.90;;;;;;5074969;28;20063;-63
2022/12/09 09:32:35;;;;;;;367.50;189.75;;;9.40;99.90;;;;;;5068486;28;20066;-64
2022/12/09 09:35:01;;;;;;;252.95;130.27;;;9.30;99.90;;;;;;5073664;28;20052;-64
2022/12/09 09:37:27;;;;;;;244.65;124.50;;;9.10;99.90;;;;;;5077093;28;20052;-63
2022/12/09 09:39:53;;;;;;;259.65;130.63;;;9.20;99.90;;;;;;5081601;28;20059;-63
2022/12/09 09:42:25;;;;;;;226.40;120.60;;;9.20;99.90;;;;;;5073586;28;20119;-63
2022/12/09 09:44:53;;;;;;;240.93;121.15;;;9.20;99.90;;;;;;5071797;28;20035;-64
2022/12/09 09:48:01;;;;;;;228.15;117.25;;;9.30;99.90;;;;;;5074371;28;20104;-63
2022/12/09 09:51:10;;;;;;;254.90;130.50;;;9.40;99.90;;;;;;4942113;28;20105;-64
2022/12/09 09:53:57;;;;;;;259.80;136.38;;;9.40;99.90;;;;;;5065249;28;20036;-63
2022/12/09 09:57:02;;;;;;;266.40;136.48;;;9.30;99.90;;;;;;5058181;28;20394;-63
2022/12/09 09:59:57;;;;;;;261.15;140.73;;;9.40;99.90;;;;;;5059558;28;20032;-63
2022/12/09 10:02:57;;;;;;;224.07;112.05;;;9.50;99.90;;;;;;5069625;28;20424;-63
2022/12/09 10:05:50;;;;;;;216.50;116.05;;;9.60;99.90;;;;;;5054527;28;20028;-63
2022/12/09 10:08:34;;;;;;;192.38;106.13;;;9.60;99.90;;;;;;5073962;28;20087;-64
2022/12/09 10:11:31;;;;;;;201.27;108.57;;;9.60;99.90;;;;;;5070984;28;20051;-63
2022/12/09 10:14:40;;;;;;;214.95;114.97;;;9.60;99.90;;;;;;5073919;28;20052;-63
2022/12/09 10:17:24;;;;;;;214.35;114.63;;;9.70;99.90;;;;;;5072510;28;20518;-63
2022/12/09 10:20:08;;;;;;;216.68;116.15;;;9.70;99.90;;;;;;5079198;28;20041;-63
2022/12/09 10:22:52;;;;;;;226.13;122.47;;;9.70;99.90;;;;;;5092426;28;20062;-64
2022/12/09 10:25:28;;;;;;;207.18;117.68;;;9.70;99.90;;;;;;5090505;28;20031;-63
2022/12/09 10:28:23;;;;;;;215.82;116.30;;;9.80;99.90;;;;;;5080156;28;20814;-63
2022/12/09 10:30:50;;;;;;;234.82;118.63;;;9.90;99.90;;;;;;5095046;28;20470;-64
2022/12/09 10:33:21;;;;;;;272.10;133.13;;;10.00;99.90;;;;;;5097674;28;20032;-64
2022/12/09 10:35:47;;;;;;;233.52;121.00;;;10.00;99.90;;;;;;5093998;28;20032;-64
2022/12/09 10:38:16;;;;;;;236.25;112.93;;;9.90;99.90;;;;;;5100039;28;20029;-64
2022/12/09 10:40:44;;;;;;;238.23;108.82;;;10.00;99.90;;;;;;5093525;28;20026;-63
2022/12/09 10:43:36;;;;;;;213.15;112.22;;;10.00;99.90;;;;;;5091057;28;20035;-64
2022/12/09 10:46:17;;;;;;;223.93;115.50;;;9.90;99.90;;;;;;5094571;28;20032;-64
2022/12/09 10:48:46;;;;;;;244.65;120.25;;;9.90;99.90;;;;;;5108391;28;20115;-64
2022/12/09 10:51:16;;;;;;;245.38;124.68;;;9.90;99.90;;;;;;5097298;28;20521;-64
2022/12/09 10:53:46;;;;;;;229.02;123.32;;;10.00;99.90;;;;;;5097833;28;20115;-64
2022/12/09 10:56:23;;;;;;;208.18;114.97;;;10.10;99.90;;;;;;5097185;28;20466;-63
2022/12/09 10:59:09;;;;;;;225.15;119.28;;;10.10;99.90;;;;;;5094766;28;20043;-64
2022/12/09 11:01:53;;;;;;;247.57;125.70;;;10.20;99.90;;;;;;5086600;28;20490;-63
2022/12/09 11:04:30;;;;;;;223.00;114.00;;;10.20;99.90;;;;;;5080290;28;20076;-64
2022/12/09 11:07:13;;;;;;;210.55;107.60;;;10.30;99.90;;;;;;5077546;28;20119;-63
2022/12/09 11:09:45;;;;;;;206.90;107.60;;;10.30;99.90;;;;;;5092600;28;20427;-64
2022/12/09 11:12:27;;;;;;;236.52;113.93;;;10.40;99.90;;;;;;5095567;28;20088;-63
2022/12/09 11:15:00;;;;;;;229.52;116.45;;;10.50;99.90;;;;;;5095827;28;20032;-64
2022/12/09 11:17:52;;;;;;;207.32;110.68;;;10.60;99.90;;;;;;5087517;28;20055;-64
2022/12/09 11:20:22;;;;;;;214.73;105.43;;;10.60;99.90;;;;;;5076111;28;20066;-63
2022/12/09 11:23:18;;;;;;;201.98;106.70;;;10.70;99.90;;;;;;5084165;28;20042;-63
2022/12/09 11:25:56;;;;;;;209.35;111.47;;;10.80;99.90;;;;;;5078928;28;20048;-64
2022/12/09 11:28:29;;;;;;;248.77;138.10;;;10.80;99.90;;;;;;5094436;28;20101;-64
2022/12/09 11:31:12;;;;;;;259.63;135.00;;;10.70;99.90;;;;;;5090626;28;20468;-64
2022/12/09 11:33:59;;;;;;;273.40;140.63;;;10.80;99.90;;;;;;5090848;28;20028;-64
2022/12/09 11:36:31;;;;;;;250.02;130.60;;;10.70;99.90;;;;;;5093074;28;20059;-64
2022/12/09 11:39:17;;;;;;;228.93;121.82;;;10.90;99.90;;;;;;5093467;28;20031;-64
2022/12/09 11:44:35;;;;;;;229.50;121.53;;;11.10;99.90;;;;;;5092159;28;20028;-64
2022/12/09 11:47:12;;;;;;;229.98;122.65;;;11.10;99.90;;;;;;5093238;28;20031;-64
2022/12/09 11:49:49;;;;;;;216.70;123.55;;;11.10;99.90;;;;;;5090344;28;20016;-63
2022/12/09 11:52:15;;;;;;;253.70;136.40;;;11.00;99.90;;;;;;5097378;28;20418;-64
2022/12/09 11:55:04;;;;;;;260.48;129.35;;;11.10;99.90;;;;;;5096702;28;20099;-64
2022/12/09 11:57:48;;;;;;;228.02;123.03;;;11.20;99.90;;;;;;5095310;28;20059;-64
2022/12/09 12:00:23;;;;;;;213.02;118.70;;;11.30;99.90;;;;;;5093266;28;20036;-64
2022/12/09 12:03:14;;;;;;;211.82;114.57;;;11.30;99.90;;;;;;5093847;28;20036;-64
2022/12/09 12:05:48;;;;;;;222.75;121.00;;;11.30;99.90;;;;;;5075701;28;20036;-64
2022/12/09 12:08:27;;;;;;;251.13;133.43;;;11.30;99.90;;;;;;5076694;28;20047;-64
2022/12/09 12:11:11;;;;;;;237.10;128.43;;;11.30;99.90;;;;;;5088938;28;20016;-64
2022/12/09 12:13:43;;;;;;;228.10;124.72;;;11.40;99.90;;;;;;5089316;28;20032;-64
2022/12/09 12:16:25;;;;;;;238.05;129.25;;;11.50;99.90;;;;;;5097985;28;20032;-64
2022/12/09 12:19:12;;;;;;;247.38;132.32;;;11.50;99.90;;;;;;5095569;28;20101;-64
2022/12/09 12:21:47;;;;;;;252.10;138.40;;;11.50;99.90;;;;;;5094201;28;20067;-64
2022/12/09 12:24:27;;;;;;;268.65;148.88;;;11.60;99.90;;;;;;5080501;28;20047;-64
2022/12/09 12:27:40;;;;;;;265.73;138.23;;;11.70;99.90;;;;;;5095052;28;20063;-64
2022/12/09 12:30:22;;;;;;;272.02;145.88;;;11.80;99.90;;;;;;5043075;28;20364;-64
2022/12/09 12:33:19;;;;;;;267.33;133.65;;;11.90;99.90;;;;;;5075211;28;20031;-64
2022/12/09 12:36:25;;;;;;;254.32;131.23;;;11.90;99.90;;;;;;5078389;28;20655;-64
2022/12/09 12:39:00;;;;;;;248.35;131.07;;;12.00;99.90;;;;;;5013027;28;20057;-64
2022/12/09 12:41:35;;;;;;;265.20;131.13;;;12.00;99.90;;;;;;5012463;28;20096;-64
2022/12/09 12:47:33;;;;;;;245.88;125.75;;;12.10;99.90;;;;;;5017648;28;20037;-64
2022/12/09 12:50:25;;;;;;;260.70;141.00;;;12.20;99.90;;;;;;5024551;28;20026;-64